createdAt,value
2022-09-15T00:00:00.572Z,22.37
2022-09-15T00:09:50.504Z,22.39
2022-09-15T00:41:44.603Z,22.62
2022-09-15T00:46:18.423Z,22.72
2022-09-15T00:50:49.071Z,22.56
2022-09-15T00:54:58.699Z,22.66
2022-09-15T00:59:45.239Z,22.80
2022-09-15T01:15:37.657Z,22.83
2022-09-15T01:20:32.891Z,22.66
2022-09-15T01:25:11.695Z,22.61
2022-09-15T01:30:07.059Z,22.59
2022-09-15T01:34:57.483Z,22.58
2022-09-15T01:39:34.524Z,22.65
2022-09-15T01:49:27.051Z,22.78
2022-09-15T01:53:53.493Z,22.87
2022-09-15T01:58:04.826Z,22.79
2022-09-15T02:02:20.941Z,23.24
2022-09-15T02:07:25.844Z,23.32
2022-09-15T02:12:11.744Z,23.59
2022-09-15T02:16:51.158Z,23.73
2022-09-15T02:22:26.769Z,23.74
2022-09-15T02:27:22.691Z,23.82
2022-09-15T02:31:50.001Z,24.04
2022-09-15T02:41:29.659Z,23.74
2022-09-15T02:46:35.943Z,23.67
2022-09-15T03:01:27.743Z,23.77
2022-09-15T03:07:02.707Z,23.63
2022-09-15T03:12:01.416Z,23.43
2022-09-15T05:19:12.987Z,25.07
2022-09-15T09:29:57.373Z,33.84
2022-09-15T09:34:08.054Z,34.29
2022-09-15T09:38:07.217Z,34.29
2022-09-15T09:42:08.674Z,34.31
2022-09-15T09:46:16.336Z,34.09
2022-09-15T09:50:39.086Z,34.20
2022-09-15T10:01:27.733Z,34.41
2022-09-15T10:05:28.343Z,34.54
2022-09-15T10:09:33.278Z,34.67
2022-09-15T10:20:24.698Z,34.67
2022-09-15T10:24:44.330Z,34.70
2022-09-15T10:28:44.752Z,34.89
2022-09-15T10:32:45.541Z,34.86
2022-09-15T10:36:45.962Z,34.95
2022-09-15T10:40:56.096Z,34.95
2022-09-15T10:45:10.733Z,34.93
2022-09-15T10:49:23.817Z,35.21
2022-09-15T10:53:53.574Z,35.29
2022-09-15T10:58:13.168Z,35.25
2022-09-15T11:02:29.850Z,35.16
2022-09-15T11:06:34.802Z,35.06
2022-09-15T11:10:41.674Z,35.11
2022-09-15T11:14:57.460Z,35.13
2022-09-15T11:19:12.658Z,35.25
2022-09-15T11:23:32.700Z,35.50
2022-09-15T11:27:37.252Z,35.62
2022-09-15T11:31:41.594Z,35.62
2022-09-15T11:35:47.497Z,35.67
2022-09-15T11:39:55.141Z,35.62
2022-09-15T11:44:16.615Z,35.63
2022-09-15T11:48:24.345Z,35.41
2022-09-15T12:05:16.639Z,35.47
2022-09-15T12:09:18.719Z,35.50
2022-09-15T12:13:20.528Z,35.54
2022-09-15T12:17:27.078Z,35.72
2022-09-15T12:21:35.724Z,35.93
2022-09-15T12:25:44.634Z,36.08
2022-09-15T12:29:50.077Z,36.12
2022-09-15T12:33:56.121Z,36.07
2022-09-15T12:38:00.064Z,35.96
2022-09-15T12:42:10.022Z,36.09
2022-09-15T13:30:54.983Z,35.80
2022-09-15T13:35:40.181Z,35.80
2022-09-15T13:40:09.103Z,35.73
2022-09-15T13:44:38.517Z,35.73
2022-09-15T13:48:52.225Z,35.83
2022-09-15T13:53:10.241Z,35.62
2022-09-15T13:57:10.097Z,35.55
2022-09-15T14:01:11.210Z,35.89
2022-09-15T14:05:15.355Z,35.79
2022-09-15T14:09:37.166Z,35.84
2022-09-15T14:13:49.427Z,35.90
2022-09-15T14:18:06.281Z,35.85
2022-09-15T14:22:27.693Z,35.53
2022-09-15T14:26:29.810Z,35.47
2022-09-15T14:30:33.326Z,35.43
2022-09-15T14:34:38.079Z,35.50
2022-09-15T14:38:41.965Z,35.55
2022-09-15T14:42:43.486Z,35.61
2022-09-15T14:46:55.847Z,35.64
2022-09-15T14:51:03.970Z,35.59
2022-09-15T14:55:10.050Z,35.48
2022-09-15T14:59:48.211Z,35.44
2022-09-15T15:04:42.937Z,35.46
2022-09-15T15:08:52.412Z,35.36
2022-09-15T15:13:14.023Z,35.32
2022-09-15T15:17:37.499Z,35.26
2022-09-15T15:21:41.239Z,35.06
2022-09-15T15:25:42.531Z,35.46
2022-09-15T15:29:46.962Z,35.43
2022-09-15T15:33:50.168Z,35.28
2022-09-15T15:38:32.595Z,35.31
2022-09-15T15:47:40.894Z,35.03
2022-09-15T15:52:02.960Z,34.83
2022-09-15T15:56:23.243Z,34.78
2022-09-15T16:00:37.958Z,34.78
2022-09-15T16:10:37.404Z,34.84
2022-09-15T16:14:36.949Z,34.84
